Other Surface Observations
Issued by NWS Great Falls, MT

Home | Current Version | Previous Version | Text Only | Print | Product List | Glossary On
Versions: 1 2 3 4 5 6 7 8 9 10 11 12 13 14 15 16 17 18 19 20 21 22 23 24 25 26 27 28 29 30 31 32 33 34 35 36 37 38 39 40 41 42 43 44 45 46 47 48 49 50
000
SXUS55 KTFX 131944
OSOTFX
AREA AWOS OBSERVATIONS
NATIONAL WEATHER SERVICE GREAT FALLS MT
1244 PM MST WED DEC 13 2017

METAR KPWD 131945Z AUTO 31014G17KT 10SM 03/M04 A3002 RMK PLENTYWOOD
METAR KPO1 131945Z AUTO 27013G18KT 10SM 04/M03 A3008 RMK POPLAR
METAR K1S3 131945Z AUTO 27009KT 06/M06 A3013 RMK FORSYTH
METAR KS71 131945Z AUTO 26013G17KT 10SM 03/M04 A3019 RMK CHINOOK
METAR K38S 131945Z AUTO 05003KT 1/2SM M02/M02 A3032 RMK DEER LODGE
METAR K3U3 131945Z AUTO 04004KT 1SM M02/M03 A3028 RMK ANACONDA
METAR K6S5 131945Z AUTO 36005KT 4SM M03/M04 A3034 RMK HAMILTON
METAR KS59 131945Z AUTO 00000KT 10SM M01/M05 A3042 RMK LIBBY
METAR K88M 131945Z AUTO 10SM M04/M08 A3047 RMK EUREKA



USA.gov is the U.S. government's official web portal to all federal, state and local government web resources and services.